createdAt,value
2018-09-05T00:00:17.613Z,10.57
2018-09-05T00:02:46.851Z,10.51
2018-09-05T00:05:16.062Z,10.46
2018-09-05T00:07:45.283Z,10.46
2018-09-05T00:10:14.920Z,10.42
2018-09-05T00:12:44.120Z,10.75
2018-09-05T00:15:13.339Z,10.71
2018-09-05T00:17:42.574Z,10.52
2018-09-05T00:20:11.787Z,10.38
2018-09-05T00:22:41.015Z,10.29
2018-09-05T00:25:10.248Z,10.27
2018-09-05T00:27:39.460Z,10.30
2018-09-05T00:30:08.672Z,10.25
2018-09-05T00:32:37.939Z,10.24
2018-09-05T00:35:07.462Z,10.12
2018-09-05T00:37:36.690Z,10.06
2018-09-05T00:40:05.990Z,9.97
2018-09-05T00:42:36.486Z,10.01
2018-09-05T00:45:05.727Z,9.97
2018-09-05T00:47:34.938Z,9.90
2018-09-05T00:50:04.154Z,9.94
2018-09-05T00:52:33.374Z,9.91
2018-09-05T00:55:02.602Z,9.90
2018-09-05T00:57:31.810Z,9.79
2018-09-05T01:00:01.011Z,9.75
2018-09-05T01:02:30.237Z,9.68
2018-09-05T01:04:59.442Z,9.68
2018-09-05T01:07:29.362Z,9.72
2018-09-05T01:09:58.587Z,9.72
2018-09-05T01:12:27.776Z,9.70
2018-09-05T01:14:56.990Z,9.69
2018-09-05T01:17:26.204Z,9.66
2018-09-05T01:19:55.473Z,9.60
2018-09-05T01:22:24.682Z,9.68
2018-09-05T01:24:53.912Z,9.88
2018-09-05T01:27:23.127Z,9.68
2018-09-05T01:29:52.337Z,9.55
2018-09-05T01:32:21.559Z,9.46
2018-09-05T01:34:50.792Z,9.44
2018-09-05T01:37:19.998Z,9.40
2018-09-05T01:39:49.210Z,9.35
2018-09-05T01:42:18.438Z,9.31
2018-09-05T01:44:47.638Z,9.31
2018-09-05T01:47:16.847Z,9.39
2018-09-05T01:49:46.060Z,9.31
2018-09-05T01:52:15.258Z,9.25
2018-09-05T01:54:45.327Z,9.16
2018-09-05T01:57:14.780Z,9.14
2018-09-05T01:59:43.997Z,9.09
2018-09-05T02:02:13.979Z,9.13
2018-09-05T02:04:43.192Z,9.04
2018-09-05T02:07:13.339Z,8.97
2018-09-05T02:09:42.578Z,8.95
2018-09-05T02:12:11.786Z,9.05
2018-09-05T02:14:41.001Z,9.13
2018-09-05T02:17:10.211Z,9.11
2018-09-05T02:19:39.433Z,9.08
2018-09-05T02:22:08.656Z,9.01
2018-09-05T02:24:37.903Z,9.09
2018-09-05T02:27:07.617Z,9.10
2018-09-05T02:29:36.851Z,9.14
2018-09-05T02:32:06.104Z,9.21
2018-09-05T02:34:35.315Z,9.16
2018-09-05T02:37:04.539Z,9.13
2018-09-05T02:39:33.760Z,9.09
2018-09-05T02:42:02.994Z,9.01
2018-09-05T02:44:32.202Z,9.02
2018-09-05T02:47:01.450Z,9.00
2018-09-05T02:49:30.671Z,8.97
2018-09-05T02:51:59.877Z,8.90
2018-09-05T02:54:29.113Z,8.85
2018-09-05T02:56:58.295Z,8.88
2018-09-05T02:59:27.499Z,8.86
2018-09-05T03:01:56.714Z,8.75
2018-09-05T03:04:25.914Z,8.68
2018-09-05T03:06:55.125Z,8.69
2018-09-05T03:09:24.374Z,8.81
2018-09-05T03:11:53.518Z,8.97
2018-09-05T03:14:22.746Z,8.68
2018-09-05T03:16:51.950Z,8.56
2018-09-05T03:19:21.165Z,8.57
2018-09-05T03:21:50.354Z,8.78
2018-09-05T03:24:19.558Z,8.83
2018-09-05T03:26:48.783Z,8.74
2018-09-05T03:29:18.007Z,8.61
2018-09-05T03:31:47.186Z,8.53
2018-09-05T03:34:16.414Z,8.59
2018-09-05T03:36:45.621Z,8.56
2018-09-05T03:39:14.839Z,8.50
2018-09-05T03:41:44.054Z,8.50
2018-09-05T03:44:13.275Z,8.51
2018-09-05T03:46:42.468Z,8.50
2018-09-05T03:49:11.748Z,8.48
2018-09-05T03:51:40.960Z,8.37
2018-09-05T03:59:08.202Z,8.50
2018-09-05T04:01:37.436Z,8.36
2018-09-05T04:04:06.673Z,8.29
2018-09-05T04:06:35.890Z,8.30
2018-09-05T04:09:07.595Z,8.39
2018-09-05T04:11:37.271Z,8.38
2018-09-05T04:14:06.491Z,8.31
2018-09-05T04:16:36.639Z,8.20
2018-09-05T04:19:05.863Z,8.20
2018-09-05T04:21:35.076Z,8.17
2018-09-05T04:24:04.271Z,8.20
2018-09-05T04:26:33.491Z,8.21
2018-09-05T04:29:02.687Z,8.21
2018-09-05T04:31:32.179Z,8.16
2018-09-05T04:34:01.381Z,8.12
2018-09-05T04:36:30.591Z,8.14
2018-09-05T04:38:59.823Z,8.15
2018-09-05T04:41:29.040Z,8.19
2018-09-05T04:43:58.252Z,8.20
2018-09-05T04:46:27.584Z,8.25
2018-09-05T04:48:56.789Z,8.29
2018-09-05T04:51:26.003Z,8.32
2018-09-05T04:53:55.227Z,8.32
2018-09-05T04:56:24.448Z,8.65
2018-09-05T04:58:54.355Z,8.36
2018-09-05T05:01:23.606Z,8.31
2018-09-05T05:03:52.892Z,8.36
2018-09-05T05:06:22.060Z,8.45
2018-09-05T05:09:09.869Z,8.49
2018-09-05T05:11:39.502Z,8.57
2018-09-05T05:14:08.752Z,8.55
2018-09-05T05:16:37.968Z,8.83
2018-09-05T05:19:07.330Z,8.82
2018-09-05T05:21:36.542Z,8.90
2018-09-05T05:24:05.771Z,9.00
2018-09-05T05:26:34.987Z,9.20
2018-09-05T05:29:04.205Z,9.37
2018-09-05T05:31:33.417Z,9.50
2018-09-05T05:34:02.612Z,9.60
2018-09-05T05:36:31.846Z,9.59
2018-09-05T05:39:01.081Z,9.49
2018-09-05T05:41:30.292Z,9.65
2018-09-05T05:43:59.608Z,10.76
2018-09-05T05:46:28.823Z,11.54
2018-09-05T05:48:58.051Z,11.89
2018-09-05T05:51:27.258Z,12.69
2018-09-05T05:53:56.495Z,13.94
2018-09-05T05:56:25.699Z,15.29
2018-09-05T05:58:54.942Z,16.13
2018-09-05T06:01:24.174Z,16.73
2018-09-05T06:03:53.399Z,17.50
2018-09-05T06:06:22.803Z,18.22
2018-09-05T06:08:51.872Z,19.20
2018-09-05T06:11:21.095Z,20.14
2018-09-05T06:13:50.326Z,22.46
2018-09-05T06:16:19.563Z,23.82
2018-09-05T06:18:48.766Z,24.94
2018-09-05T06:21:18.095Z,24.68
2018-09-05T06:23:47.295Z,23.21
2018-09-05T06:26:16.515Z,23.87
2018-09-05T06:28:45.738Z,24.57
2018-09-05T06:31:15.074Z,23.28
2018-09-05T06:33:44.156Z,22.88
2018-09-05T06:36:13.433Z,23.82
2018-09-05T06:38:42.635Z,24.38
2018-09-05T06:41:11.855Z,24.49
2018-09-05T06:43:41.095Z,24.88
2018-09-05T06:46:10.299Z,25.92
2018-09-05T06:48:39.536Z,25.93
2018-09-05T06:51:08.943Z,27.28
2018-09-05T06:53:39.239Z,26.96
2018-09-05T06:56:08.480Z,27.11
2018-09-05T06:58:37.816Z,27.05
2018-09-05T07:01:07.087Z,27.34
2018-09-05T07:03:36.439Z,28.73
2018-09-05T07:06:05.561Z,28.53
2018-09-05T07:08:34.759Z,29.05
2018-09-05T07:11:03.979Z,28.45
2018-09-05T07:13:33.178Z,28.57
2018-09-05T07:16:02.426Z,28.04
2018-09-05T07:18:31.834Z,29.12
2018-09-05T07:21:05.677Z,30.28
2018-09-05T07:23:30.281Z,30.80
2018-09-05T07:25:59.483Z,31.78
2018-09-05T07:28:28.696Z,28.69
2018-09-05T07:30:57.944Z,29.89
2018-09-05T07:33:27.129Z,30.62
2018-09-05T07:35:56.375Z,31.91
2018-09-05T07:38:25.598Z,31.75
2018-09-05T07:40:54.808Z,30.57
2018-09-05T07:43:24.033Z,28.68
2018-09-05T07:45:53.261Z,28.48
2018-09-05T07:48:22.493Z,28.88
2018-09-05T07:50:51.764Z,29.92
2018-09-05T07:53:20.935Z,30.95
2018-09-05T07:55:50.153Z,29.10
2018-09-05T07:58:19.355Z,28.20
2018-09-05T08:00:49.494Z,28.99
2018-09-05T08:03:18.701Z,29.67
2018-09-05T08:05:47.927Z,29.54
2018-09-05T08:08:18.180Z,30.05
2018-09-05T08:10:47.420Z,33.91
2018-09-05T08:13:17.531Z,32.34
2018-09-05T08:15:46.751Z,31.10
2018-09-05T08:18:16.309Z,30.56
2018-09-05T08:20:45.846Z,30.55
2018-09-05T08:23:15.075Z,30.15
2018-09-05T08:25:45.543Z,29.10
2018-09-05T08:28:14.746Z,28.69
2018-09-05T08:30:43.972Z,29.80
2018-09-05T08:33:13.186Z,29.08
2018-09-05T08:35:42.607Z,30.69
2018-09-05T08:38:11.687Z,30.38
2018-09-05T08:40:40.842Z,30.96
2018-09-05T08:43:10.048Z,29.78
2018-09-05T08:45:39.630Z,29.45
2018-09-05T08:48:08.655Z,30.12
2018-09-05T08:50:37.843Z,30.82
2018-09-05T08:53:07.055Z,29.10
2018-09-05T08:55:36.259Z,29.81
2018-09-05T08:58:05.537Z,30.46
2018-09-05T09:00:34.752Z,30.21
2018-09-05T09:03:04.170Z,31.00
2018-09-05T09:05:33.378Z,30.92
2018-09-05T09:08:02.845Z,31.78
2018-09-05T09:10:32.046Z,31.56
2018-09-05T09:13:01.251Z,31.89
2018-09-05T09:15:30.491Z,29.74
2018-09-05T09:17:59.710Z,30.35
2018-09-05T09:20:28.922Z,29.96
2018-09-05T09:22:58.147Z,30.62
2018-09-05T09:25:27.352Z,31.50
2018-09-05T09:27:56.598Z,30.96
2018-09-05T09:30:25.806Z,30.94
2018-09-05T09:32:54.997Z,30.96
2018-09-05T09:35:24.312Z,32.80
2018-09-05T09:37:54.689Z,30.98
2018-09-05T09:40:23.910Z,29.42
2018-09-05T09:42:53.199Z,30.58
2018-09-05T09:45:22.413Z,33.47
2018-09-05T09:47:51.666Z,32.19
2018-09-05T09:50:20.927Z,33.16
2018-09-05T09:52:50.155Z,30.71
2018-09-05T09:55:19.342Z,29.49
2018-09-05T09:57:48.558Z,29.33
2018-09-05T10:00:22.892Z,27.58
2018-09-05T10:02:57.227Z,27.93
2018-09-05T10:05:31.529Z,29.63
2018-09-05T10:08:06.900Z,27.81
2018-09-05T10:10:41.309Z,29.03
2018-09-05T10:13:17.410Z,28.56
2018-09-05T10:15:52.403Z,32.03
2018-09-05T10:18:27.494Z,29.19
2018-09-05T10:20:57.577Z,29.03
2018-09-05T10:23:27.071Z,29.59
2018-09-05T10:25:56.471Z,29.31
2018-09-05T10:28:25.699Z,33.93
2018-09-05T10:30:54.911Z,34.39
2018-09-05T10:33:24.151Z,31.23
2018-09-05T10:35:53.374Z,31.27
2018-09-05T10:38:22.568Z,29.61
2018-09-05T10:40:51.781Z,28.16
2018-09-05T10:43:20.999Z,28.92
2018-09-05T10:45:50.206Z,28.62
2018-09-05T10:48:19.414Z,28.42
2018-09-05T10:50:48.629Z,27.34
2018-09-05T10:53:17.842Z,27.78
2018-09-05T10:55:47.524Z,31.75
2018-09-05T10:58:17.011Z,33.02
2018-09-05T11:00:46.287Z,31.03
2018-09-05T11:03:15.535Z,28.31
2018-09-05T11:05:44.743Z,27.44
2018-09-05T11:08:13.955Z,28.48
2018-09-05T11:10:43.173Z,28.03
2018-09-05T11:13:12.362Z,26.11
2018-09-05T11:15:41.558Z,28.33
2018-09-05T11:18:10.782Z,32.62
2018-09-05T11:20:39.999Z,32.13
2018-09-05T11:23:09.277Z,31.51
2018-09-05T11:25:38.518Z,33.88
2018-09-05T11:28:07.773Z,30.57
2018-09-05T11:30:37.098Z,26.49
2018-09-05T11:33:07.649Z,26.60
2018-09-05T11:35:36.855Z,26.59
2018-09-05T11:38:06.142Z,26.52
2018-09-05T11:40:35.393Z,27.64
2018-09-05T11:43:04.631Z,26.79
2018-09-05T11:45:33.890Z,26.88
2018-09-05T11:48:03.179Z,29.26
2018-09-05T11:50:32.455Z,32.32
2018-09-05T11:53:01.675Z,32.01
2018-09-05T11:55:30.890Z,28.45
2018-09-05T11:58:00.159Z,26.69
2018-09-05T12:00:29.383Z,26.36
2018-09-05T12:02:58.607Z,27.25
2018-09-05T12:05:27.889Z,26.92
2018-09-05T12:07:57.183Z,29.41
2018-09-05T12:10:26.443Z,32.16
2018-09-05T12:12:55.698Z,31.06
2018-09-05T12:15:25.361Z,34.08
2018-09-05T12:17:54.572Z,33.10
2018-09-05T12:20:23.803Z,27.93
2018-09-05T12:22:53.120Z,27.06
2018-09-05T12:25:22.772Z,27.16
2018-09-05T12:27:52.000Z,27.24
2018-09-05T12:30:21.224Z,29.28
2018-09-05T12:32:50.474Z,27.81
2018-09-05T12:35:19.707Z,25.47
2018-09-05T12:37:48.934Z,23.91
2018-09-05T12:40:18.240Z,25.03
2018-09-05T12:42:47.489Z,24.48
2018-09-05T12:45:16.732Z,25.01
2018-09-05T12:47:46.045Z,26.29
2018-09-05T12:50:15.368Z,27.54
2018-09-05T12:52:44.619Z,27.75
2018-09-05T12:55:13.914Z,27.92
2018-09-05T12:57:43.087Z,27.24
2018-09-05T13:00:12.366Z,25.53
2018-09-05T13:02:41.642Z,26.18
2018-09-05T13:05:10.973Z,24.84
2018-09-05T13:07:40.154Z,23.96
2018-09-05T13:10:09.444Z,24.69
2018-09-05T13:12:39.063Z,25.80
2018-09-05T13:15:08.339Z,26.24
2018-09-05T13:17:37.563Z,24.96
2018-09-05T13:20:06.829Z,25.50
2018-09-05T13:22:36.218Z,25.60
2018-09-05T13:25:05.507Z,25.20
2018-09-05T13:27:34.750Z,24.79
2018-09-05T13:30:04.063Z,25.18
2018-09-05T13:32:33.349Z,24.60
2018-09-05T13:35:02.694Z,24.47
2018-09-05T13:37:32.282Z,25.19
2018-09-05T13:40:01.538Z,25.34
2018-09-05T13:42:32.035Z,25.36
2018-09-05T13:45:01.307Z,25.00
2018-09-05T13:47:30.747Z,25.17
2018-09-05T13:49:59.979Z,24.65
2018-09-05T13:52:29.579Z,24.50
2018-09-05T13:54:58.810Z,24.72
2018-09-05T13:57:28.096Z,24.57
2018-09-05T13:59:57.338Z,24.46
2018-09-05T14:02:26.615Z,24.38
2018-09-05T14:04:55.838Z,24.48
2018-09-05T14:07:25.115Z,24.69
2018-09-05T14:09:54.390Z,24.64
2018-09-05T14:12:23.608Z,24.65
2018-09-05T14:14:52.848Z,24.94
2018-09-05T14:17:22.117Z,24.81
2018-09-05T14:19:51.687Z,24.39
2018-09-05T14:22:20.990Z,24.21
2018-09-05T14:24:50.487Z,23.90
2018-09-05T14:27:19.805Z,23.84
2018-09-05T14:29:48.979Z,23.89
2018-09-05T14:32:18.195Z,23.86
2018-09-05T14:34:47.463Z,23.69
2018-09-05T14:37:16.763Z,23.08
2018-09-05T14:39:46.097Z,23.37
2018-09-05T14:42:15.323Z,23.50
2018-09-05T14:44:44.800Z,23.92
2018-09-05T14:47:14.080Z,23.90
2018-09-05T14:49:43.412Z,24.03
2018-09-05T14:52:12.708Z,24.48
2018-09-05T14:54:41.951Z,24.16
2018-09-05T14:57:11.180Z,23.64
2018-09-05T14:59:40.514Z,23.60
2018-09-05T15:02:09.895Z,23.38
2018-09-05T15:04:39.407Z,22.81
2018-09-05T15:07:08.671Z,22.54
2018-09-05T15:09:37.898Z,22.34
2018-09-05T15:12:07.171Z,22.70
2018-09-05T15:14:36.388Z,22.88
2018-09-05T15:17:05.760Z,23.18
2018-09-05T15:19:35.025Z,22.87
2018-09-05T15:22:04.304Z,23.02
2018-09-05T15:24:33.548Z,22.66
2018-09-05T15:27:02.785Z,22.94
2018-09-05T15:29:32.032Z,22.88
2018-09-05T15:32:01.332Z,22.82
2018-09-05T15:34:30.587Z,22.65
2018-09-05T15:36:59.873Z,22.67
2018-09-05T15:39:29.124Z,22.23
2018-09-05T15:41:58.370Z,22.30
2018-09-05T15:44:27.735Z,22.35
2018-09-05T15:46:57.031Z,22.55
2018-09-05T15:49:26.228Z,22.49
2018-09-05T15:51:56.375Z,22.53
2018-09-05T15:54:26.688Z,22.56
2018-09-05T15:56:55.902Z,22.71
2018-09-05T15:59:25.147Z,22.33
2018-09-05T16:01:55.213Z,22.13
2018-09-05T16:04:24.463Z,22.20
2018-09-05T16:06:53.763Z,22.25
2018-09-05T16:09:23.011Z,22.16
2018-09-05T16:11:52.256Z,22.38
2018-09-05T16:14:21.570Z,21.79
2018-09-05T16:16:50.811Z,21.42
2018-09-05T16:19:20.060Z,21.60
2018-09-05T16:21:49.315Z,21.54
2018-09-05T16:24:18.554Z,21.62
2018-09-05T16:26:47.995Z,21.25
2018-09-05T16:29:17.227Z,21.43
2018-09-05T16:31:46.474Z,21.42
2018-09-05T16:34:15.711Z,21.31
2018-09-05T16:36:45.001Z,21.41
2018-09-05T16:39:14.246Z,21.56
2018-09-05T16:41:43.517Z,21.47
2018-09-05T16:44:12.744Z,21.14
2018-09-05T16:46:41.963Z,20.98
2018-09-05T16:49:11.197Z,20.83
2018-09-05T16:51:40.452Z,20.66
2018-09-05T16:54:09.723Z,20.61
2018-09-05T16:56:38.950Z,20.50
2018-09-05T16:59:08.149Z,20.46
2018-09-05T17:01:37.457Z,20.35
2018-09-05T17:04:06.835Z,20.38
2018-09-05T17:06:36.079Z,20.55
2018-09-05T17:09:08.692Z,20.25
2018-09-05T17:11:37.972Z,20.07
2018-09-05T17:14:07.280Z,19.79
2018-09-05T17:16:36.526Z,19.67
2018-09-05T17:19:06.090Z,19.47
2018-09-05T17:21:35.342Z,19.34
2018-09-05T17:24:04.639Z,19.58
2018-09-05T17:26:35.154Z,19.72
2018-09-05T17:29:04.754Z,19.70
2018-09-05T17:31:34.126Z,19.40
2018-09-05T17:34:03.977Z,18.88
2018-09-05T17:36:33.210Z,18.47
2018-09-05T17:39:02.459Z,18.35
2018-09-05T17:41:31.735Z,18.21
2018-09-05T17:44:01.050Z,18.02
2018-09-05T17:46:30.303Z,17.82
2018-09-05T17:48:59.546Z,17.56
2018-09-05T17:51:28.878Z,17.37
2018-09-05T17:53:58.146Z,17.15
2018-09-05T17:56:27.396Z,17.21
2018-09-05T17:58:56.643Z,16.94
2018-09-05T18:01:26.354Z,16.75
2018-09-05T18:03:55.562Z,16.71
2018-09-05T18:06:24.797Z,16.60
2018-09-05T18:08:54.017Z,16.46
2018-09-05T18:11:23.259Z,16.47
2018-09-05T18:13:52.537Z,16.41
2018-09-05T18:16:21.779Z,16.31
2018-09-05T18:18:51.050Z,16.19
2018-09-05T18:21:20.307Z,16.07
2018-09-05T18:23:49.546Z,15.97
2018-09-05T18:26:18.790Z,15.95
2018-09-05T18:28:48.039Z,15.88
2018-09-05T18:31:17.308Z,15.83
2018-09-05T18:33:46.589Z,15.77
2018-09-05T18:36:15.795Z,15.68
2018-09-05T18:38:45.041Z,15.61
2018-09-05T18:41:14.309Z,15.54
2018-09-05T18:43:43.596Z,15.44
2018-09-05T18:46:12.938Z,15.38
2018-09-05T18:48:42.284Z,15.37
2018-09-05T18:51:11.614Z,15.31
2018-09-05T18:53:40.859Z,15.22
2018-09-05T18:56:10.151Z,15.15
2018-09-05T18:58:39.451Z,15.10
2018-09-05T19:01:08.698Z,15.03
2018-09-05T19:03:37.933Z,14.96
2018-09-05T19:06:07.299Z,14.96
2018-09-05T19:08:36.525Z,15.43
2018-09-05T19:11:05.908Z,14.99
2018-09-05T19:13:35.150Z,14.86
2018-09-05T19:16:04.472Z,14.77
2018-09-05T19:18:33.808Z,14.71
2018-09-05T19:21:02.983Z,14.64
2018-09-05T19:23:32.838Z,14.57
2018-09-05T19:26:02.195Z,14.51
2018-09-05T19:28:31.460Z,14.46
2018-09-05T19:31:00.815Z,14.38
2018-09-05T19:33:30.067Z,14.42
2018-09-05T19:35:59.324Z,14.36
2018-09-05T19:38:28.558Z,14.37
2018-09-05T19:40:57.827Z,14.32
2018-09-05T19:43:27.038Z,14.29
2018-09-05T19:45:56.287Z,14.26
2018-09-05T19:48:25.523Z,14.25
2018-09-05T19:50:54.755Z,14.35
2018-09-05T19:53:24.027Z,14.42
2018-09-05T19:55:53.300Z,14.38
2018-09-05T19:58:22.561Z,14.17
2018-09-05T20:00:52.093Z,14.00
2018-09-05T20:03:21.370Z,13.98
2018-09-05T20:05:50.818Z,13.89
2018-09-05T20:08:20.290Z,13.76
2018-09-05T20:10:50.756Z,13.79
2018-09-05T20:13:20.023Z,13.71
2018-09-05T20:15:49.262Z,13.64
2018-09-05T20:18:18.569Z,13.60
2018-09-05T20:20:47.831Z,13.79
2018-09-05T20:23:17.141Z,13.59
2018-09-05T20:25:46.341Z,13.52
2018-09-05T20:28:15.594Z,13.50
2018-09-05T20:30:44.847Z,13.48
2018-09-05T20:33:14.106Z,13.46
2018-09-05T20:36:17.239Z,13.40
2018-09-05T20:38:46.495Z,13.30
2018-09-05T20:41:15.730Z,13.25
2018-09-05T20:43:45.035Z,13.21
2018-09-05T20:46:14.326Z,13.15
2018-09-05T20:51:43.547Z,13.11
2018-09-05T20:54:12.775Z,13.05
2018-09-05T20:56:42.043Z,12.97
2018-09-05T20:59:11.394Z,13.13
2018-09-05T21:01:40.676Z,13.09
2018-09-05T21:04:09.924Z,12.99
2018-09-05T21:06:39.163Z,12.90
2018-09-05T21:09:09.410Z,13.20
2018-09-05T21:11:38.645Z,13.03
2018-09-05T21:14:07.980Z,12.89
2018-09-05T21:16:37.532Z,12.87
2018-09-05T21:19:06.799Z,12.84
2018-09-05T21:21:36.030Z,12.72
2018-09-05T21:24:05.356Z,12.67
2018-09-05T21:26:34.707Z,12.65
2018-09-05T21:29:03.926Z,12.60
2018-09-05T21:31:33.175Z,12.63
2018-09-05T21:34:02.437Z,12.61
2018-09-05T21:36:31.661Z,12.53
2018-09-05T21:39:00.952Z,12.60
2018-09-05T21:41:30.143Z,12.52
2018-09-05T21:43:59.439Z,12.42
2018-09-05T21:46:28.622Z,12.43
2018-09-05T21:48:57.863Z,12.42
2018-09-05T21:51:27.207Z,12.29
2018-09-05T21:53:56.454Z,12.25
2018-09-05T21:56:25.687Z,12.20
2018-09-05T21:58:54.943Z,12.28
2018-09-05T22:01:24.195Z,12.17
2018-09-05T22:03:53.708Z,12.28
2018-09-05T22:06:22.950Z,12.13
2018-09-05T22:08:52.178Z,12.07
2018-09-05T22:11:25.174Z,12.06
2018-09-05T22:13:55.252Z,12.04
2018-09-05T22:16:24.486Z,12.10
2018-09-05T22:18:53.938Z,12.17
2018-09-05T22:21:23.178Z,12.14
2018-09-05T22:23:52.640Z,12.02
2018-09-05T22:26:21.886Z,12.20
2018-09-05T22:28:51.130Z,11.98
2018-09-05T22:31:20.370Z,11.85
2018-09-05T22:33:49.627Z,11.84
2018-09-05T22:36:18.884Z,11.76
2018-09-05T22:38:48.122Z,11.70
2018-09-05T22:41:17.355Z,11.62
2018-09-05T22:44:03.659Z,11.59
2018-09-05T22:47:54.092Z,11.56
2018-09-05T22:51:06.969Z,11.49
2018-09-05T22:58:11.366Z,11.70
2018-09-05T23:01:02.395Z,11.36
2018-09-05T23:04:37.217Z,11.34
2018-09-05T23:07:34.364Z,11.31
2018-09-05T23:10:20.797Z,11.29
2018-09-05T23:13:07.256Z,11.26
2018-09-05T23:16:56.705Z,11.31
2018-09-05T23:19:38.575Z,11.34
2018-09-05T23:22:07.892Z,11.31
2018-09-05T23:24:37.160Z,11.35
2018-09-05T23:27:06.572Z,11.34
2018-09-05T23:29:35.911Z,11.40
2018-09-05T23:37:02.516Z,11.27
2018-09-05T23:39:31.800Z,11.38
2018-09-05T23:42:01.893Z,11.31
2018-09-05T23:44:31.148Z,11.12
2018-09-05T23:47:00.447Z,11.05
2018-09-05T23:49:29.711Z,11.07
2018-09-05T23:51:58.952Z,11.06
2018-09-05T23:54:28.484Z,10.99
2018-09-05T23:56:57.744Z,11.00
2018-09-05T23:59:26.971Z,11.10
